sensor_id;sensor_type;location;lat;lon;timestamp;temperature;humidity
27314;DHT22;14800;48.174;9.798;2022-12-10T00:01:13;3.50;87.40
27314;DHT22;14800;48.174;9.798;2022-12-10T00:03:38;3.50;87.30
27314;DHT22;14800;48.174;9.798;2022-12-10T00:06:06;3.60;87.30
27314;DHT22;14800;48.174;9.798;2022-12-10T00:08:33;3.60;87.30
27314;DHT22;14800;48.174;9.798;2022-12-10T00:10:59;3.60;87.40
27314;DHT22;14800;48.174;9.798;2022-12-10T00:13:27;3.60;87.40
27314;DHT22;14800;48.174;9.798;2022-12-10T00:15:52;3.60;87.30
27314;DHT22;14800;48.174;9.798;2022-12-10T00:18:18;3.60;87.30
27314;DHT22;14800;48.174;9.798;2022-12-10T00:20:43;3.70;87.30
27314;DHT22;14800;48.174;9.798;2022-12-10T00:23:09;3.70;87.30
27314;DHT22;14800;48.174;9.798;2022-12-10T00:25:35;3.70;87.20
27314;DHT22;14800;48.174;9.798;2022-12-10T00:28:00;3.70;87.20
27314;DHT22;14800;48.174;9.798;2022-12-10T00:30:26;3.70;87.10
27314;DHT22;14800;48.174;9.798;2022-12-10T00:32:51;3.70;87.10
27314;DHT22;14800;48.174;9.798;2022-12-10T00:35:17;3.70;87.00
27314;DHT22;14800;48.174;9.798;2022-12-10T00:37:42;3.70;87.10
27314;DHT22;14800;48.174;9.798;2022-12-10T00:40:08;3.70;87.10
27314;DHT22;14800;48.174;9.798;2022-12-10T00:42:36;3.70;87.10
27314;DHT22;14800;48.174;9.798;2022-12-10T00:45:02;3.70;87.10
27314;DHT22;14800;48.174;9.798;2022-12-10T00:47:28;3.70;87.20
27314;DHT22;14800;48.174;9.798;2022-12-10T00:49:53;3.70;87.20
27314;DHT22;14800;48.174;9.798;2022-12-10T00:52:19;3.70;87.20
27314;DHT22;14800;48.174;9.798;2022-12-10T00:54:44;3.70;87.20
27314;DHT22;14800;48.174;9.798;2022-12-10T00:57:10;3.70;87.30
27314;DHT22;14800;48.174;9.798;2022-12-10T00:59:35;3.80;87.30
27314;DHT22;14800;48.174;9.798;2022-12-10T01:02:01;3.80;87.30
27314;DHT22;14800;48.174;9.798;2022-12-10T01:04:26;3.80;87.20
27314;DHT22;14800;48.174;9.798;2022-12-10T01:06:53;3.80;87.00
27314;DHT22;14800;48.174;9.798;2022-12-10T01:09:24;3.80;87.00
27314;DHT22;14800;48.174;9.798;2022-12-10T01:11:51;3.80;87.00
27314;DHT22;14800;48.174;9.798;2022-12-10T01:14:26;3.70;86.90
27314;DHT22;14800;48.174;9.798;2022-12-10T01:17:03;3.70;87.10
27314;DHT22;14800;48.174;9.798;2022-12-10T01:19:31;3.80;87.30
27314;DHT22;14800;48.174;9.798;2022-12-10T01:21:57;3.70;87.10
27314;DHT22;14800;48.174;9.798;2022-12-10T01:24:24;3.70;87.10
27314;DHT22;14800;48.174;9.798;2022-12-10T01:26:50;3.70;87.20
27314;DHT22;14800;48.174;9.798;2022-12-10T01:29:16;3.70;87.10
27314;DHT22;14800;48.174;9.798;2022-12-10T01:31:42;3.70;87.20
27314;DHT22;14800;48.174;9.798;2022-12-10T01:34:11;3.70;87.20
27314;DHT22;14800;48.174;9.798;2022-12-10T01:36:40;3.70;87.10
27314;DHT22;14800;48.174;9.798;2022-12-10T01:39:09;3.70;87.00
27314;DHT22;14800;48.174;9.798;2022-12-10T01:41:40;3.70;87.90
27314;DHT22;14800;48.174;9.798;2022-12-10T01:46:43;3.70;87.00
27314;DHT22;14800;48.174;9.798;2022-12-10T01:49:12;3.70;87.20
27314;DHT22;14800;48.174;9.798;2022-12-10T01:51:40;3.70;87.30
27314;DHT22;14800;48.174;9.798;2022-12-10T01:54:10;3.70;87.30
27314;DHT22;14800;48.174;9.798;2022-12-10T01:56:40;3.70;87.30
27314;DHT22;14800;48.174;9.798;2022-12-10T01:59:06;3.70;87.30
27314;DHT22;14800;48.174;9.798;2022-12-10T02:06:58;3.70;87.20
27314;DHT22;14800;48.174;9.798;2022-12-10T02:17:26;3.60;87.00
27314;DHT22;14800;48.174;9.798;2022-12-10T02:22:31;3.50;87.30
27314;DHT22;14800;48.174;9.798;2022-12-10T02:24:57;3.50;87.40
27314;DHT22;14800;48.174;9.798;2022-12-10T02:27:31;3.50;87.50
27314;DHT22;14800;48.174;9.798;2022-12-10T02:29:59;3.50;87.70
27314;DHT22;14800;48.174;9.798;2022-12-10T02:32:31;3.40;87.70
27314;DHT22;14800;48.174;9.798;2022-12-10T02:35:01;3.40;87.80
27314;DHT22;14800;48.174;9.798;2022-12-10T02:37:48;3.40;87.80
27314;DHT22;14800;48.174;9.798;2022-12-10T02:40:21;3.50;87.90
27314;DHT22;14800;48.174;9.798;2022-12-10T02:42:50;3.50;87.80
27314;DHT22;14800;48.174;9.798;2022-12-10T02:45:17;3.50;87.80
27314;DHT22;14800;48.174;9.798;2022-12-10T02:47:43;3.40;87.70
27314;DHT22;14800;48.174;9.798;2022-12-10T02:50:11;3.50;87.70
27314;DHT22;14800;48.174;9.798;2022-12-10T02:52:38;3.50;87.70
27314;DHT22;14800;48.174;9.798;2022-12-10T02:55:03;3.50;87.70
27314;DHT22;14800;48.174;9.798;2022-12-10T03:00:16;3.40;87.70
27314;DHT22;14800;48.174;9.798;2022-12-10T03:05:32;3.40;87.70
27314;DHT22;14800;48.174;9.798;2022-12-10T03:08:05;3.40;87.70
27314;DHT22;14800;48.174;9.798;2022-12-10T03:13:12;3.40;87.70
27314;DHT22;14800;48.174;9.798;2022-12-10T03:15:41;3.30;87.70
27314;DHT22;14800;48.174;9.798;2022-12-10T03:18:09;3.30;87.70
27314;DHT22;14800;48.174;9.798;2022-12-10T03:20:39;3.30;87.50
27314;DHT22;14800;48.174;9.798;2022-12-10T03:23:08;3.20;87.50
27314;DHT22;14800;48.174;9.798;2022-12-10T03:25:35;3.20;87.80
27314;DHT22;14800;48.174;9.798;2022-12-10T03:28:03;3.20;88.00
27314;DHT22;14800;48.174;9.798;2022-12-10T03:30:32;3.20;88.00
27314;DHT22;14800;48.174;9.798;2022-12-10T03:32:59;3.20;88.00
27314;DHT22;14800;48.174;9.798;2022-12-10T03:35:25;3.20;88.00
27314;DHT22;14800;48.174;9.798;2022-12-10T03:37:52;3.20;88.00
27314;DHT22;14800;48.174;9.798;2022-12-10T03:40:21;3.20;88.20
27314;DHT22;14800;48.174;9.798;2022-12-10T03:42:47;3.20;88.30
27314;DHT22;14800;48.174;9.798;2022-12-10T03:45:13;3.20;88.20
27314;DHT22;14800;48.174;9.798;2022-12-10T03:47:40;3.20;88.00
27314;DHT22;14800;48.174;9.798;2022-12-10T03:50:06;3.20;88.10
27314;DHT22;14800;48.174;9.798;2022-12-10T03:52:31;3.20;88.10
27314;DHT22;14800;48.174;9.798;2022-12-10T03:54:57;3.20;88.20
27314;DHT22;14800;48.174;9.798;2022-12-10T03:57:23;3.20;88.10
27314;DHT22;14800;48.174;9.798;2022-12-10T03:59:48;3.20;88.10
27314;DHT22;14800;48.174;9.798;2022-12-10T04:02:14;3.20;88.00
27314;DHT22;14800;48.174;9.798;2022-12-10T04:04:40;3.30;88.00
27314;DHT22;14800;48.174;9.798;2022-12-10T04:07:05;3.30;87.90
27314;DHT22;14800;48.174;9.798;2022-12-10T04:09:31;3.40;87.90
27314;DHT22;14800;48.174;9.798;2022-12-10T04:11:57;3.30;87.90
27314;DHT22;14800;48.174;9.798;2022-12-10T04:14:24;3.30;87.90
27314;DHT22;14800;48.174;9.798;2022-12-10T04:17:08;3.30;87.90
27314;DHT22;14800;48.174;9.798;2022-12-10T04:19:35;3.40;87.80
27314;DHT22;14800;48.174;9.798;2022-12-10T04:22:00;3.40;87.70
27314;DHT22;14800;48.174;9.798;2022-12-10T04:24:45;3.40;87.60
27314;DHT22;14800;48.174;9.798;2022-12-10T04:27:32;3.40;87.60
27314;DHT22;14800;48.174;9.798;2022-12-10T04:29:59;3.40;87.50
27314;DHT22;14800;48.174;9.798;2022-12-10T04:32:26;3.40;87.40
27314;DHT22;14800;48.174;9.798;2022-12-10T04:34:52;3.40;87.30
27314;DHT22;14800;48.174;9.798;2022-12-10T04:37:18;3.40;87.30
27314;DHT22;14800;48.174;9.798;2022-12-10T04:39:44;3.40;87.20
27314;DHT22;14800;48.174;9.798;2022-12-10T04:42:10;3.40;87.20
27314;DHT22;14800;48.174;9.798;2022-12-10T04:44:39;3.40;87.20
27314;DHT22;14800;48.174;9.798;2022-12-10T04:47:06;3.40;87.10
27314;DHT22;14800;48.174;9.798;2022-12-10T04:49:32;3.40;87.10
27314;DHT22;14800;48.174;9.798;2022-12-10T04:51:58;3.40;87.10
27314;DHT22;14800;48.174;9.798;2022-12-10T04:54:24;3.40;87.10
27314;DHT22;14800;48.174;9.798;2022-12-10T04:56:49;3.40;87.10
27314;DHT22;14800;48.174;9.798;2022-12-10T04:59:15;3.40;87.10
27314;DHT22;14800;48.174;9.798;2022-12-10T05:01:41;3.30;87.10
27314;DHT22;14800;48.174;9.798;2022-12-10T05:04:09;3.30;87.20
27314;DHT22;14800;48.174;9.798;2022-12-10T05:06:36;3.30;87.00
27314;DHT22;14800;48.174;9.798;2022-12-10T05:09:03;3.20;87.00
27314;DHT22;14800;48.174;9.798;2022-12-10T05:11:31;3.20;87.30
27314;DHT22;14800;48.174;9.798;2022-12-10T05:13:57;3.20;87.50
27314;DHT22;14800;48.174;9.798;2022-12-10T05:16:26;3.20;87.50
27314;DHT22;14800;48.174;9.798;2022-12-10T05:18:53;3.20;87.40
27314;DHT22;14800;48.174;9.798;2022-12-10T05:21:21;3.20;87.50
27314;DHT22;14800;48.174;9.798;2022-12-10T05:23:48;3.20;87.50
27314;DHT22;14800;48.174;9.798;2022-12-10T05:26:22;3.20;87.50
27314;DHT22;14800;48.174;9.798;2022-12-10T05:28:54;3.20;87.30
27314;DHT22;14800;48.174;9.798;2022-12-10T05:31:21;3.20;87.20
27314;DHT22;14800;48.174;9.798;2022-12-10T05:33:48;3.20;87.20
27314;DHT22;14800;48.174;9.798;2022-12-10T05:36:16;3.10;86.90
27314;DHT22;14800;48.174;9.798;2022-12-10T05:38:42;3.10;87.00
27314;DHT22;14800;48.174;9.798;2022-12-10T05:41:18;3.10;87.30
27314;DHT22;14800;48.174;9.798;2022-12-10T05:43:44;3.10;87.50
27314;DHT22;14800;48.174;9.798;2022-12-10T05:46:13;3.10;87.50
27314;DHT22;14800;48.174;9.798;2022-12-10T05:48:39;3.10;87.60
27314;DHT22;14800;48.174;9.798;2022-12-10T05:51:13;3.10;87.50
27314;DHT22;14800;48.174;9.798;2022-12-10T05:53:40;3.00;87.30
27314;DHT22;14800;48.174;9.798;2022-12-10T05:56:08;3.00;87.20
27314;DHT22;14800;48.174;9.798;2022-12-10T05:58:35;3.00;87.00
27314;DHT22;14800;48.174;9.798;2022-12-10T06:01:06;2.90;87.00
27314;DHT22;14800;48.174;9.798;2022-12-10T06:03:32;2.80;87.30
27314;DHT22;14800;48.174;9.798;2022-12-10T06:05:58;2.80;87.30
27314;DHT22;14800;48.174;9.798;2022-12-10T06:08:23;2.80;87.50
27314;DHT22;14800;48.174;9.798;2022-12-10T06:10:49;2.80;87.60
27314;DHT22;14800;48.174;9.798;2022-12-10T06:13:14;2.80;87.70
27314;DHT22;14800;48.174;9.798;2022-12-10T06:15:41;2.80;87.80
27314;DHT22;14800;48.174;9.798;2022-12-10T06:18:07;2.80;87.90
27314;DHT22;14800;48.174;9.798;2022-12-10T06:20:33;2.80;87.90
27314;DHT22;14800;48.174;9.798;2022-12-10T06:22:59;2.80;87.90
27314;DHT22;14800;48.174;9.798;2022-12-10T06:25:25;2.80;87.90
27314;DHT22;14800;48.174;9.798;2022-12-10T06:27:50;2.80;87.80
27314;DHT22;14800;48.174;9.798;2022-12-10T06:30:16;2.80;87.70
27314;DHT22;14800;48.174;9.798;2022-12-10T06:32:42;2.80;87.70
27314;DHT22;14800;48.174;9.798;2022-12-10T06:35:10;2.80;87.70
27314;DHT22;14800;48.174;9.798;2022-12-10T06:37:36;2.90;87.70
27314;DHT22;14800;48.174;9.798;2022-12-10T06:40:03;2.90;87.70
27314;DHT22;14800;48.174;9.798;2022-12-10T06:42:29;2.90;87.60
27314;DHT22;14800;48.174;9.798;2022-12-10T06:44:54;2.90;87.50
27314;DHT22;14800;48.174;9.798;2022-12-10T06:47:20;2.90;87.50
27314;DHT22;14800;48.174;9.798;2022-12-10T06:49:45;2.90;87.50
27314;DHT22;14800;48.174;9.798;2022-12-10T06:52:11;2.90;87.60
27314;DHT22;14800;48.174;9.798;2022-12-10T06:54:37;2.90;87.50
27314;DHT22;14800;48.174;9.798;2022-12-10T06:57:03;2.90;87.60
27314;DHT22;14800;48.174;9.798;2022-12-10T06:59:28;2.90;87.60
27314;DHT22;14800;48.174;9.798;2022-12-10T07:01:54;2.90;87.60
27314;DHT22;14800;48.174;9.798;2022-12-10T07:04:19;2.90;87.50
27314;DHT22;14800;48.174;9.798;2022-12-10T07:06:45;2.90;87.50
27314;DHT22;14800;48.174;9.798;2022-12-10T07:09:10;3.00;87.50
27314;DHT22;14800;48.174;9.798;2022-12-10T07:11:36;2.90;87.30
27314;DHT22;14800;48.174;9.798;2022-12-10T07:14:02;2.90;87.30
27314;DHT22;14800;48.174;9.798;2022-12-10T07:16:30;3.00;87.30
27314;DHT22;14800;48.174;9.798;2022-12-10T07:18:58;3.00;87.30
27314;DHT22;14800;48.174;9.798;2022-12-10T07:23:50;3.00;87.20
27314;DHT22;14800;48.174;9.798;2022-12-10T07:26:17;3.00;87.00
27314;DHT22;14800;48.174;9.798;2022-12-10T07:28:42;2.90;86.80
27314;DHT22;14800;48.174;9.798;2022-12-10T07:31:09;2.90;86.80
27314;DHT22;14800;48.174;9.798;2022-12-10T07:33:35;2.90;87.00
27314;DHT22;14800;48.174;9.798;2022-12-10T07:36:10;2.90;87.10
27314;DHT22;14800;48.174;9.798;2022-12-10T07:38:36;2.90;87.10
27314;DHT22;14800;48.174;9.798;2022-12-10T07:41:03;2.90;87.00
27314;DHT22;14800;48.174;9.798;2022-12-10T07:43:29;2.80;86.90
27314;DHT22;14800;48.174;9.798;2022-12-10T07:45:55;2.80;87.00
27314;DHT22;14800;48.174;9.798;2022-12-10T07:48:20;2.80;87.20
27314;DHT22;14800;48.174;9.798;2022-12-10T07:50:46;2.80;87.30
27314;DHT22;14800;48.174;9.798;2022-12-10T07:53:12;2.80;87.30
27314;DHT22;14800;48.174;9.798;2022-12-10T07:55:38;2.80;87.40
27314;DHT22;14800;48.174;9.798;2022-12-10T07:58:03;2.80;87.50
27314;DHT22;14800;48.174;9.798;2022-12-10T08:00:29;2.80;87.50
27314;DHT22;14800;48.174;9.798;2022-12-10T08:02:54;2.80;87.60
27314;DHT22;14800;48.174;9.798;2022-12-10T08:05:20;2.80;87.50
27314;DHT22;14800;48.174;9.798;2022-12-10T08:07:45;2.80;87.60
27314;DHT22;14800;48.174;9.798;2022-12-10T08:10:11;2.80;87.50
27314;DHT22;14800;48.174;9.798;2022-12-10T08:12:37;2.90;87.60
27314;DHT22;14800;48.174;9.798;2022-12-10T08:15:02;2.90;87.50
27314;DHT22;14800;48.174;9.798;2022-12-10T08:17:28;2.90;87.50
27314;DHT22;14800;48.174;9.798;2022-12-10T08:19:54;2.90;87.50
27314;DHT22;14800;48.174;9.798;2022-12-10T08:22:20;2.90;87.30
27314;DHT22;14800;48.174;9.798;2022-12-10T08:24:46;2.90;87.30
27314;DHT22;14800;48.174;9.798;2022-12-10T08:27:11;2.90;87.40
27314;DHT22;14800;48.174;9.798;2022-12-10T08:29:40;2.90;87.50
27314;DHT22;14800;48.174;9.798;2022-12-10T08:32:06;2.90;87.50
27314;DHT22;14800;48.174;9.798;2022-12-10T08:34:31;2.90;87.60
27314;DHT22;14800;48.174;9.798;2022-12-10T08:36:57;2.90;87.40
27314;DHT22;14800;48.174;9.798;2022-12-10T08:39:22;2.90;87.20
27314;DHT22;14800;48.174;9.798;2022-12-10T08:41:48;2.90;87.20
27314;DHT22;14800;48.174;9.798;2022-12-10T08:44:14;2.80;87.00
27314;DHT22;14800;48.174;9.798;2022-12-10T08:46:39;2.80;87.10
27314;DHT22;14800;48.174;9.798;2022-12-10T08:49:06;2.80;87.30
27314;DHT22;14800;48.174;9.798;2022-12-10T08:51:34;2.70;87.30
27314;DHT22;14800;48.174;9.798;2022-12-10T08:54:00;2.70;87.60
27314;DHT22;14800;48.174;9.798;2022-12-10T08:56:25;2.70;87.80
27314;DHT22;14800;48.174;9.798;2022-12-10T08:58:51;2.70;88.00
27314;DHT22;14800;48.174;9.798;2022-12-10T09:01:17;2.70;88.10
27314;DHT22;14800;48.174;9.798;2022-12-10T09:03:43;2.70;88.00
27314;DHT22;14800;48.174;9.798;2022-12-10T09:06:13;2.80;88.00
27314;DHT22;14800;48.174;9.798;2022-12-10T09:08:39;2.80;88.00
27314;DHT22;14800;48.174;9.798;2022-12-10T09:11:10;2.80;88.00
27314;DHT22;14800;48.174;9.798;2022-12-10T09:13:36;2.80;88.10
27314;DHT22;14800;48.174;9.798;2022-12-10T09:16:02;2.90;88.00
27314;DHT22;14800;48.174;9.798;2022-12-10T09:18:28;2.90;87.70
27314;DHT22;14800;48.174;9.798;2022-12-10T09:20:53;2.90;87.50
27314;DHT22;14800;48.174;9.798;2022-12-10T09:23:19;2.90;87.50
27314;DHT22;14800;48.174;9.798;2022-12-10T09:25:44;2.90;87.50
27314;DHT22;14800;48.174;9.798;2022-12-10T09:28:10;2.90;87.50
27314;DHT22;14800;48.174;9.798;2022-12-10T09:30:36;2.90;87.50
27314;DHT22;14800;48.174;9.798;2022-12-10T09:33:01;2.90;87.60
27314;DHT22;14800;48.174;9.798;2022-12-10T09:35:27;2.90;87.30
27314;DHT22;14800;48.174;9.798;2022-12-10T09:37:53;2.90;87.10
27314;DHT22;14800;48.174;9.798;2022-12-10T09:51:31;3.00;87.70
27314;DHT22;14800;48.174;9.798;2022-12-10T09:53:59;3.10;87.70
27314;DHT22;14800;48.174;9.798;2022-12-10T09:56:31;3.10;87.30
27314;DHT22;14800;48.174;9.798;2022-12-10T09:59:01;3.10;87.50
27314;DHT22;14800;48.174;9.798;2022-12-10T10:01:30;3.10;87.50
27314;DHT22;14800;48.174;9.798;2022-12-10T10:03:56;3.10;87.70
27314;DHT22;14800;48.174;9.798;2022-12-10T10:06:22;3.10;87.70
27314;DHT22;14800;48.174;9.798;2022-12-10T10:08:52;3.20;87.90
27314;DHT22;14800;48.174;9.798;2022-12-10T10:11:24;3.30;87.90
27314;DHT22;14800;48.174;9.798;2022-12-10T10:13:57;3.30;87.70
27314;DHT22;14800;48.174;9.798;2022-12-10T10:16:30;3.40;88.20
27314;DHT22;14800;48.174;9.798;2022-12-10T10:21:38;3.40;86.80
27314;DHT22;14800;48.174;9.798;2022-12-10T10:24:05;3.40;86.60
27314;DHT22;14800;48.174;9.798;2022-12-10T10:26:32;3.40;86.50
27314;DHT22;14800;48.174;9.798;2022-12-10T10:29:05;3.40;86.60
27314;DHT22;14800;48.174;9.798;2022-12-10T10:31:33;3.40;86.50
27314;DHT22;14800;48.174;9.798;2022-12-10T10:34:05;3.40;86.50
27314;DHT22;14800;48.174;9.798;2022-12-10T10:36:35;3.50;86.50
27314;DHT22;14800;48.174;9.798;2022-12-10T10:41:49;3.50;85.80
27314;DHT22;14800;48.174;9.798;2022-12-10T10:44:19;3.50;86.10
27314;DHT22;14800;48.174;9.798;2022-12-10T10:46:47;3.50;86.30
27314;DHT22;14800;48.174;9.798;2022-12-10T10:49:24;3.60;86.40
27314;DHT22;14800;48.174;9.798;2022-12-10T10:51:52;3.60;86.20
27314;DHT22;14800;48.174;9.798;2022-12-10T10:54:38;3.60;86.00
27314;DHT22;14800;48.174;9.798;2022-12-10T10:57:11;3.70;85.00
27314;DHT22;14800;48.174;9.798;2022-12-10T10:59:38;3.70;85.00
27314;DHT22;14800;48.174;9.798;2022-12-10T11:04:49;3.70;84.60
27314;DHT22;14800;48.174;9.798;2022-12-10T11:07:33;3.70;84.80
27314;DHT22;14800;48.174;9.798;2022-12-10T11:10:00;3.70;84.70
27314;DHT22;14800;48.174;9.798;2022-12-10T11:12:37;3.70;84.90
27314;DHT22;14800;48.174;9.798;2022-12-10T11:17:53;3.70;84.20
27314;DHT22;14800;48.174;9.798;2022-12-10T11:20:20;3.70;83.90
27314;DHT22;14800;48.174;9.798;2022-12-10T11:23:12;3.60;83.90
27314;DHT22;14800;48.174;9.798;2022-12-10T11:30:59;3.50;84.00
27314;DHT22;14800;48.174;9.798;2022-12-10T12:05:08;3.10;84.50
27314;DHT22;14800;48.174;9.798;2022-12-10T12:07:44;3.10;84.20
27314;DHT22;14800;48.174;9.798;2022-12-10T12:13:22;3.10;85.00
27314;DHT22;14800;48.174;9.798;2022-12-10T12:18:42;3.20;84.90
27314;DHT22;14800;48.174;9.798;2022-12-10T12:21:11;3.20;84.50
27314;DHT22;14800;48.174;9.798;2022-12-10T12:24:03;3.20;84.00
27314;DHT22;14800;48.174;9.798;2022-12-10T12:26:44;3.10;83.70
27314;DHT22;14800;48.174;9.798;2022-12-10T12:29:18;3.00;83.80
27314;DHT22;14800;48.174;9.798;2022-12-10T12:31:57;2.90;83.60
27314;DHT22;14800;48.174;9.798;2022-12-10T12:36:52;2.80;83.80
27314;DHT22;14800;48.174;9.798;2022-12-10T12:44:49;2.50;84.50
27314;DHT22;14800;48.174;9.798;2022-12-10T12:50:43;2.50;86.10
27314;DHT22;14800;48.174;9.798;2022-12-10T12:53:16;2.50;85.40
27314;DHT22;14800;48.174;9.798;2022-12-10T13:04:02;2.70;85.40
27314;DHT22;14800;48.174;9.798;2022-12-10T13:06:30;2.80;85.40
27314;DHT22;14800;48.174;9.798;2022-12-10T13:11:45;2.80;84.90
27314;DHT22;14800;48.174;9.798;2022-12-10T13:14:33;2.70;85.10
27314;DHT22;14800;48.174;9.798;2022-12-10T13:17:07;2.70;85.00
27314;DHT22;14800;48.174;9.798;2022-12-10T13:19:34;2.70;85.10
27314;DHT22;14800;48.174;9.798;2022-12-10T13:25:11;2.70;85.40
27314;DHT22;14800;48.174;9.798;2022-12-10T13:27:38;2.70;85.40
27314;DHT22;14800;48.174;9.798;2022-12-10T13:40:26;2.70;85.50
27314;DHT22;14800;48.174;9.798;2022-12-10T13:43:36;2.70;85.50
27314;DHT22;14800;48.174;9.798;2022-12-10T13:48:51;2.80;85.30
27314;DHT22;14800;48.174;9.798;2022-12-10T13:54:29;2.80;85.10
27314;DHT22;14800;48.174;9.798;2022-12-10T13:59:57;2.80;85.00
27314;DHT22;14800;48.174;9.798;2022-12-10T14:08:00;2.80;85.00
27314;DHT22;14800;48.174;9.798;2022-12-10T14:10:33;2.80;85.00
27314;DHT22;14800;48.174;9.798;2022-12-10T14:13:02;2.80;84.90
27314;DHT22;14800;48.174;9.798;2022-12-10T14:15:28;2.80;84.90
27314;DHT22;14800;48.174;9.798;2022-12-10T14:18:04;2.70;85.10
27314;DHT22;14800;48.174;9.798;2022-12-10T14:20:34;2.80;85.30
27314;DHT22;14800;48.174;9.798;2022-12-10T14:23:16;2.80;85.40
27314;DHT22;14800;48.174;9.798;2022-12-10T14:26:13;2.80;85.50
27314;DHT22;14800;48.174;9.798;2022-12-10T14:28:50;2.80;85.30
27314;DHT22;14800;48.174;9.798;2022-12-10T14:31:20;2.80;85.10
27314;DHT22;14800;48.174;9.798;2022-12-10T14:33:48;2.70;85.10
27314;DHT22;14800;48.174;9.798;2022-12-10T14:36:19;2.70;85.00
27314;DHT22;14800;48.174;9.798;2022-12-10T14:38:46;2.60;85.00
27314;DHT22;14800;48.174;9.798;2022-12-10T14:41:15;2.60;85.30
27314;DHT22;14800;48.174;9.798;2022-12-10T14:43:42;2.60;85.40
27314;DHT22;14800;48.174;9.798;2022-12-10T14:46:16;2.60;85.60
27314;DHT22;14800;48.174;9.798;2022-12-10T14:48:42;2.60;86.00
27314;DHT22;14800;48.174;9.798;2022-12-10T14:51:14;2.60;86.00
27314;DHT22;14800;48.174;9.798;2022-12-10T14:53:40;2.60;86.00
27314;DHT22;14800;48.174;9.798;2022-12-10T14:56:07;2.60;85.90
27314;DHT22;14800;48.174;9.798;2022-12-10T14:58:39;2.60;85.80
27314;DHT22;14800;48.174;9.798;2022-12-10T15:01:12;2.70;85.80
27314;DHT22;14800;48.174;9.798;2022-12-10T15:03:44;2.70;85.60
27314;DHT22;14800;48.174;9.798;2022-12-10T15:06:15;2.70;85.40
27314;DHT22;14800;48.174;9.798;2022-12-10T15:08:42;2.70;85.30
27314;DHT22;14800;48.174;9.798;2022-12-10T15:11:16;2.70;85.20
27314;DHT22;14800;48.174;9.798;2022-12-10T15:13:48;2.70;84.90
27314;DHT22;14800;48.174;9.798;2022-12-10T15:16:17;2.70;84.80
27314;DHT22;14800;48.174;9.798;2022-12-10T15:18:43;2.60;84.60
27314;DHT22;14800;48.174;9.798;2022-12-10T15:21:23;2.60;84.70
27314;DHT22;14800;48.174;9.798;2022-12-10T15:23:49;2.60;84.80
27314;DHT22;14800;48.174;9.798;2022-12-10T15:28:44;2.50;84.90
27314;DHT22;14800;48.174;9.798;2022-12-10T15:33:56;2.40;84.60
27314;DHT22;14800;48.174;9.798;2022-12-10T15:36:51;2.40;84.70
27314;DHT22;14800;48.174;9.798;2022-12-10T15:39:22;2.40;84.90
27314;DHT22;14800;48.174;9.798;2022-12-10T15:41:52;2.40;84.90
27314;DHT22;14800;48.174;9.798;2022-12-10T15:49:39;2.40;84.90
27314;DHT22;14800;48.174;9.798;2022-12-10T15:52:05;2.30;84.60
27314;DHT22;14800;48.174;9.798;2022-12-10T15:54:34;2.30;84.70
27314;DHT22;14800;48.174;9.798;2022-12-10T15:57:14;2.30;84.70
27314;DHT22;14800;48.174;9.798;2022-12-10T15:59:44;2.30;84.70
27314;DHT22;14800;48.174;9.798;2022-12-10T16:02:32;2.20;84.70
27314;DHT22;14800;48.174;9.798;2022-12-10T16:05:00;2.20;84.80
27314;DHT22;14800;48.174;9.798;2022-12-10T16:07:26;2.20;85.00
27314;DHT22;14800;48.174;9.798;2022-12-10T16:09:52;2.20;85.00
27314;DHT22;14800;48.174;9.798;2022-12-10T16:12:18;2.20;84.90
27314;DHT22;14800;48.174;9.798;2022-12-10T16:14:50;2.20;84.90
27314;DHT22;14800;48.174;9.798;2022-12-10T16:17:17;2.20;85.00
27314;DHT22;14800;48.174;9.798;2022-12-10T16:19:42;2.10;85.00
27314;DHT22;14800;48.174;9.798;2022-12-10T16:22:08;2.10;85.20
27314;DHT22;14800;48.174;9.798;2022-12-10T16:24:34;2.10;85.40
27314;DHT22;14800;48.174;9.798;2022-12-10T16:27:00;2.20;85.60
27314;DHT22;14800;48.174;9.798;2022-12-10T16:29:25;2.20;85.80
27314;DHT22;14800;48.174;9.798;2022-12-10T16:31:51;2.20;85.80
27314;DHT22;14800;48.174;9.798;2022-12-10T16:34:17;2.20;86.00
27314;DHT22;14800;48.174;9.798;2022-12-10T16:36:42;2.20;85.90
27314;DHT22;14800;48.174;9.798;2022-12-10T16:39:08;2.30;85.90
27314;DHT22;14800;48.174;9.798;2022-12-10T16:41:34;2.30;85.80
27314;DHT22;14800;48.174;9.798;2022-12-10T16:44:00;2.40;85.80
27314;DHT22;14800;48.174;9.798;2022-12-10T16:46:26;2.40;85.80
27314;DHT22;14800;48.174;9.798;2022-12-10T16:48:51;2.40;85.70
27314;DHT22;14800;48.174;9.798;2022-12-10T16:51:26;2.50;85.60
27314;DHT22;14800;48.174;9.798;2022-12-10T16:53:54;2.50;85.60
27314;DHT22;14800;48.174;9.798;2022-12-10T16:56:20;2.50;85.50
27314;DHT22;14800;48.174;9.798;2022-12-10T16:58:46;2.60;85.50
27314;DHT22;14800;48.174;9.798;2022-12-10T17:01:23;2.60;85.50
27314;DHT22;14800;48.174;9.798;2022-12-10T17:03:51;2.60;85.30
27314;DHT22;14800;48.174;9.798;2022-12-10T17:06:18;2.60;85.10
27314;DHT22;14800;48.174;9.798;2022-12-10T17:08:44;2.60;85.00
27314;DHT22;14800;48.174;9.798;2022-12-10T17:14:18;2.60;85.10
27314;DHT22;14800;48.174;9.798;2022-12-10T17:16:45;2.60;85.00
27314;DHT22;14800;48.174;9.798;2022-12-10T17:19:14;2.60;85.10
27314;DHT22;14800;48.174;9.798;2022-12-10T17:21:39;2.60;85.30
27314;DHT22;14800;48.174;9.798;2022-12-10T17:24:05;2.50;85.20
27314;DHT22;14800;48.174;9.798;2022-12-10T17:26:35;2.50;85.10
27314;DHT22;14800;48.174;9.798;2022-12-10T17:29:14;2.50;86.00
27314;DHT22;14800;48.174;9.798;2022-12-10T17:31:40;2.50;85.30
27314;DHT22;14800;48.174;9.798;2022-12-10T17:34:06;2.60;85.20
27314;DHT22;14800;48.174;9.798;2022-12-10T17:36:32;2.60;85.30
27314;DHT22;14800;48.174;9.798;2022-12-10T17:38:58;2.60;85.40
27314;DHT22;14800;48.174;9.798;2022-12-10T17:41:24;2.60;85.40
27314;DHT22;14800;48.174;9.798;2022-12-10T17:43:49;2.60;85.40
27314;DHT22;14800;48.174;9.798;2022-12-10T17:46:20;2.60;85.40
27314;DHT22;14800;48.174;9.798;2022-12-10T17:48:46;2.60;85.30
27314;DHT22;14800;48.174;9.798;2022-12-10T17:51:13;2.60;85.00
27314;DHT22;14800;48.174;9.798;2022-12-10T17:53:39;2.60;84.80
27314;DHT22;14800;48.174;9.798;2022-12-10T17:56:10;2.60;84.60
27314;DHT22;14800;48.174;9.798;2022-12-10T17:58:38;2.60;84.60
27314;DHT22;14800;48.174;9.798;2022-12-10T18:01:05;2.60;84.60
27314;DHT22;14800;48.174;9.798;2022-12-10T18:03:30;2.50;84.60
27314;DHT22;14800;48.174;9.798;2022-12-10T18:05:56;2.50;84.60
27314;DHT22;14800;48.174;9.798;2022-12-10T18:08:21;2.40;84.70
27314;DHT22;14800;48.174;9.798;2022-12-10T18:10:49;2.40;85.10
27314;DHT22;14800;48.174;9.798;2022-12-10T18:13:15;2.40;85.10
27314;DHT22;14800;48.174;9.798;2022-12-10T18:15:41;2.40;85.30
27314;DHT22;14800;48.174;9.798;2022-12-10T18:18:09;2.40;85.20
27314;DHT22;14800;48.174;9.798;2022-12-10T18:20:38;2.40;85.20
27314;DHT22;14800;48.174;9.798;2022-12-10T18:23:06;2.40;85.30
27314;DHT22;14800;48.174;9.798;2022-12-10T18:25:32;2.40;85.30
27314;DHT22;14800;48.174;9.798;2022-12-10T18:28:02;2.40;85.40
27314;DHT22;14800;48.174;9.798;2022-12-10T18:30:27;2.50;85.60